sensor_id;sensor_type;location;lat;lon;timestamp;temperature;humidity
9977;DHT22;5029;47.378;11.776;2022-09-24T00:02:56;8.10;99.90
9977;DHT22;5029;47.378;11.776;2022-09-24T00:08:00;8.30;99.90
9977;DHT22;5029;47.378;11.776;2022-09-24T00:13:12;8.20;99.90
9977;DHT22;5029;47.378;11.776;2022-09-24T00:18:19;8.10;99.90
9977;DHT22;5029;47.378;11.776;2022-09-24T00:23:23;8.50;99.90
9977;DHT22;5029;47.378;11.776;2022-09-24T00:28:30;8.70;99.90
9977;DHT22;5029;47.378;11.776;2022-09-24T00:33:35;8.80;99.90
9977;DHT22;5029;47.378;11.776;2022-09-24T00:38:42;8.20;99.90
9977;DHT22;5029;47.378;11.776;2022-09-24T00:43:50;8.00;99.90
9977;DHT22;5029;47.378;11.776;2022-09-24T00:49:09;7.90;99.90
9977;DHT22;5029;47.378;11.776;2022-09-24T00:54:19;8.30;99.90
9977;DHT22;5029;47.378;11.776;2022-09-24T00:59:26;8.40;99.90
9977;DHT22;5029;47.378;11.776;2022-09-24T01:04:32;8.50;99.90
9977;DHT22;5029;47.378;11.776;2022-09-24T01:09:45;8.10;99.90
9977;DHT22;5029;47.378;11.776;2022-09-24T01:14:59;7.80;99.90
9977;DHT22;5029;47.378;11.776;2022-09-24T01:20:35;7.80;99.90
9977;DHT22;5029;47.378;11.776;2022-09-24T01:25:46;8.10;99.90
9977;DHT22;5029;47.378;11.776;2022-09-24T01:31:10;8.30;99.90
9977;DHT22;5029;47.378;11.776;2022-09-24T01:36:22;8.40;99.90
9977;DHT22;5029;47.378;11.776;2022-09-24T01:41:30;8.40;99.90
9977;DHT22;5029;47.378;11.776;2022-09-24T01:46:38;8.10;99.90
9977;DHT22;5029;47.378;11.776;2022-09-24T01:51:49;7.60;99.90
9977;DHT22;5029;47.378;11.776;2022-09-24T01:57:00;7.40;99.90
9977;DHT22;5029;47.378;11.776;2022-09-24T02:02:16;7.80;99.90
9977;DHT22;5029;47.378;11.776;2022-09-24T02:07:26;7.50;99.90
9977;DHT22;5029;47.378;11.776;2022-09-24T02:12:36;7.60;99.90
9977;DHT22;5029;47.378;11.776;2022-09-24T02:17:52;7.90;99.90
9977;DHT22;5029;47.378;11.776;2022-09-24T02:22:58;8.10;99.90
9977;DHT22;5029;47.378;11.776;2022-09-24T02:28:08;8.20;99.90
9977;DHT22;5029;47.378;11.776;2022-09-24T02:33:16;8.20;99.90
9977;DHT22;5029;47.378;11.776;2022-09-24T02:38:39;7.70;99.90
9977;DHT22;5029;47.378;11.776;2022-09-24T02:43:44;7.60;99.90
9977;DHT22;5029;47.378;11.776;2022-09-24T02:48:56;7.50;99.90
9977;DHT22;5029;47.378;11.776;2022-09-24T02:54:02;7.20;99.90
9977;DHT22;5029;47.378;11.776;2022-09-24T02:59:14;7.50;99.90
9977;DHT22;5029;47.378;11.776;2022-09-24T03:04:19;7.50;99.90
9977;DHT22;5029;47.378;11.776;2022-09-24T03:09:23;7.40;99.90
9977;DHT22;5029;47.378;11.776;2022-09-24T03:14:27;7.60;99.90
9977;DHT22;5029;47.378;11.776;2022-09-24T03:19:48;7.30;99.90
9977;DHT22;5029;47.378;11.776;2022-09-24T03:25:00;7.60;99.90
9977;DHT22;5029;47.378;11.776;2022-09-24T03:30:33;7.30;99.90
9977;DHT22;5029;47.378;11.776;2022-09-24T03:36:13;7.20;99.90
9977;DHT22;5029;47.378;11.776;2022-09-24T03:41:19;7.00;99.90
9977;DHT22;5029;47.378;11.776;2022-09-24T03:46:28;7.00;99.90
9977;DHT22;5029;47.378;11.776;2022-09-24T03:51:33;7.00;99.90
9977;DHT22;5029;47.378;11.776;2022-09-24T03:56:37;6.70;99.90
9977;DHT22;5029;47.378;11.776;2022-09-24T04:01:44;6.70;99.90
9977;DHT22;5029;47.378;11.776;2022-09-24T04:06:49;6.70;99.90
9977;DHT22;5029;47.378;11.776;2022-09-24T04:11:53;6.80;99.90
9977;DHT22;5029;47.378;11.776;2022-09-24T04:17:02;7.10;99.90
9977;DHT22;5029;47.378;11.776;2022-09-24T04:22:08;7.20;99.90
9977;DHT22;5029;47.378;11.776;2022-09-24T04:27:15;7.10;99.90
9977;DHT22;5029;47.378;11.776;2022-09-24T04:32:27;7.10;99.90
9977;DHT22;5029;47.378;11.776;2022-09-24T04:37:41;6.90;99.90
9977;DHT22;5029;47.378;11.776;2022-09-24T04:42:50;7.00;99.90
9977;DHT22;5029;47.378;11.776;2022-09-24T04:47:57;6.60;99.90
9977;DHT22;5029;47.378;11.776;2022-09-24T04:53:02;6.40;99.90
9977;DHT22;5029;47.378;11.776;2022-09-24T04:58:06;6.50;99.90
9977;DHT22;5029;47.378;11.776;2022-09-24T05:03:10;6.50;99.90
9977;DHT22;5029;47.378;11.776;2022-09-24T05:08:17;6.80;99.90
9977;DHT22;5029;47.378;11.776;2022-09-24T05:13:22;6.50;99.90
9977;DHT22;5029;47.378;11.776;2022-09-24T05:18:26;6.70;99.90
9977;DHT22;5029;47.378;11.776;2022-09-24T05:23:31;7.00;99.90
9977;DHT22;5029;47.378;11.776;2022-09-24T05:28:37;6.90;99.90
9977;DHT22;5029;47.378;11.776;2022-09-24T05:33:41;6.60;99.90
9977;DHT22;5029;47.378;11.776;2022-09-24T05:38:46;6.70;99.90
9977;DHT22;5029;47.378;11.776;2022-09-24T05:43:50;6.80;99.90
9977;DHT22;5029;47.378;11.776;2022-09-24T05:48:53;6.90;99.90
9977;DHT22;5029;47.378;11.776;2022-09-24T05:53:59;7.00;99.90
9977;DHT22;5029;47.378;11.776;2022-09-24T05:59:02;7.30;99.90
9977;DHT22;5029;47.378;11.776;2022-09-24T06:04:06;7.60;99.90
9977;DHT22;5029;47.378;11.776;2022-09-24T06:09:12;7.70;99.90
9977;DHT22;5029;47.378;11.776;2022-09-24T06:14:15;7.80;99.90
9977;DHT22;5029;47.378;11.776;2022-09-24T06:19:24;7.80;99.90
9977;DHT22;5029;47.378;11.776;2022-09-24T06:24:36;7.90;99.90
9977;DHT22;5029;47.378;11.776;2022-09-24T06:29:49;7.80;99.90
9977;DHT22;5029;47.378;11.776;2022-09-24T06:34:57;7.70;99.90
9977;DHT22;5029;47.378;11.776;2022-09-24T06:40:05;7.70;99.90
9977;DHT22;5029;47.378;11.776;2022-09-24T06:45:09;7.80;99.90
9977;DHT22;5029;47.378;11.776;2022-09-24T06:50:18;7.60;99.90
9977;DHT22;5029;47.378;11.776;2022-09-24T06:55:24;7.60;99.90
9977;DHT22;5029;47.378;11.776;2022-09-24T07:00:30;7.50;99.90
9977;DHT22;5029;47.378;11.776;2022-09-24T07:05:59;8.10;99.90
9977;DHT22;5029;47.378;11.776;2022-09-24T07:11:14;8.10;99.90
9977;DHT22;5029;47.378;11.776;2022-09-24T07:16:27;8.10;99.90
9977;DHT22;5029;47.378;11.776;2022-09-24T07:21:44;8.30;99.90
9977;DHT22;5029;47.378;11.776;2022-09-24T07:26:50;8.70;99.90
9977;DHT22;5029;47.378;11.776;2022-09-24T07:32:14;8.80;99.90
9977;DHT22;5029;47.378;11.776;2022-09-24T07:37:18;8.90;99.90
9977;DHT22;5029;47.378;11.776;2022-09-24T07:42:23;8.70;99.90
9977;DHT22;5029;47.378;11.776;2022-09-24T07:47:27;9.00;99.90
9977;DHT22;5029;47.378;11.776;2022-09-24T07:52:31;9.10;99.90
9977;DHT22;5029;47.378;11.776;2022-09-24T07:57:36;9.10;99.90
9977;DHT22;5029;47.378;11.776;2022-09-24T08:02:40;9.30;99.90
9977;DHT22;5029;47.378;11.776;2022-09-24T08:07:50;9.30;99.90
9977;DHT22;5029;47.378;11.776;2022-09-24T08:13:11;10.30;99.90
9977;DHT22;5029;47.378;11.776;2022-09-24T08:18:14;10.80;99.90
9977;DHT22;5029;47.378;11.776;2022-09-24T08:23:18;11.00;99.90
9977;DHT22;5029;47.378;11.776;2022-09-24T08:28:24;11.00;99.90
9977;DHT22;5029;47.378;11.776;2022-09-24T08:33:28;11.00;99.90
9977;DHT22;5029;47.378;11.776;2022-09-24T08:38:32;11.00;99.90
9977;DHT22;5029;47.378;11.776;2022-09-24T08:43:44;11.50;99.90
9977;DHT22;5029;47.378;11.776;2022-09-24T08:48:50;11.10;99.90
9977;DHT22;5029;47.378;11.776;2022-09-24T08:53:59;11.10;99.90
9977;DHT22;5029;47.378;11.776;2022-09-24T08:59:13;11.40;99.90
9977;DHT22;5029;47.378;11.776;2022-09-24T09:04:25;11.60;99.90
9977;DHT22;5029;47.378;11.776;2022-09-24T09:09:39;12.00;99.90
9977;DHT22;5029;47.378;11.776;2022-09-24T09:14:50;11.80;99.90
9977;DHT22;5029;47.378;11.776;2022-09-24T09:20:01;11.50;99.90
9977;DHT22;5029;47.378;11.776;2022-09-24T09:25:16;11.50;99.90
9977;DHT22;5029;47.378;11.776;2022-09-24T09:30:22;11.90;99.90
9977;DHT22;5029;47.378;11.776;2022-09-24T09:35:31;12.50;99.90
9977;DHT22;5029;47.378;11.776;2022-09-24T09:40:42;13.20;99.90
9977;DHT22;5029;47.378;11.776;2022-09-24T09:45:58;13.10;99.90
9977;DHT22;5029;47.378;11.776;2022-09-24T09:51:04;13.60;99.90
9977;DHT22;5029;47.378;11.776;2022-09-24T09:56:09;13.30;99.90
9977;DHT22;5029;47.378;11.776;2022-09-24T10:01:16;13.40;99.90
9977;DHT22;5029;47.378;11.776;2022-09-24T10:06:23;13.30;99.90
9977;DHT22;5029;47.378;11.776;2022-09-24T10:11:27;13.40;99.90
9977;DHT22;5029;47.378;11.776;2022-09-24T10:16:36;13.90;99.90
9977;DHT22;5029;47.378;11.776;2022-09-24T10:21:40;14.00;99.90
9977;DHT22;5029;47.378;11.776;2022-09-24T10:26:45;14.00;99.90
9977;DHT22;5029;47.378;11.776;2022-09-24T10:31:50;14.00;99.90
9977;DHT22;5029;47.378;11.776;2022-09-24T10:36:58;14.00;99.90
9977;DHT22;5029;47.378;11.776;2022-09-24T10:42:02;13.80;99.90
9977;DHT22;5029;47.378;11.776;2022-09-24T10:47:16;14.00;99.90
9977;DHT22;5029;47.378;11.776;2022-09-24T10:52:36;14.10;99.90
9977;DHT22;5029;47.378;11.776;2022-09-24T10:57:54;14.20;99.90
9977;DHT22;5029;47.378;11.776;2022-09-24T11:03:14;14.10;99.90
9977;DHT22;5029;47.378;11.776;2022-09-24T11:08:33;14.20;99.90
9977;DHT22;5029;47.378;11.776;2022-09-24T11:13:46;14.40;99.90
9977;DHT22;5029;47.378;11.776;2022-09-24T11:18:57;14.70;99.90
9977;DHT22;5029;47.378;11.776;2022-09-24T11:24:19;15.00;99.90
9977;DHT22;5029;47.378;11.776;2022-09-24T11:29:36;15.00;99.90
9977;DHT22;5029;47.378;11.776;2022-09-24T11:35:02;15.30;99.90
9977;DHT22;5029;47.378;11.776;2022-09-24T11:40:19;15.20;99.90
9977;DHT22;5029;47.378;11.776;2022-09-24T11:45:40;15.00;99.90
9977;DHT22;5029;47.378;11.776;2022-09-24T11:50:59;14.90;99.90
9977;DHT22;5029;47.378;11.776;2022-09-24T11:56:09;14.90;99.90
9977;DHT22;5029;47.378;11.776;2022-09-24T12:01:19;15.10;99.90
9977;DHT22;5029;47.378;11.776;2022-09-24T12:06:29;15.10;99.90
9977;DHT22;5029;47.378;11.776;2022-09-24T12:11:37;14.90;99.90
9977;DHT22;5029;47.378;11.776;2022-09-24T12:16:44;15.00;99.90
9977;DHT22;5029;47.378;11.776;2022-09-24T12:27:12;15.20;99.90
9977;DHT22;5029;47.378;11.776;2022-09-24T12:32:20;15.10;99.90
9977;DHT22;5029;47.378;11.776;2022-09-24T12:37:44;15.20;99.90
9977;DHT22;5029;47.378;11.776;2022-09-24T12:48:15;15.10;99.90
9977;DHT22;5029;47.378;11.776;2022-09-24T12:53:20;14.70;99.90
9977;DHT22;5029;47.378;11.776;2022-09-24T12:58:35;14.50;99.90
9977;DHT22;5029;47.378;11.776;2022-09-24T13:03:41;14.60;99.90
9977;DHT22;5029;47.378;11.776;2022-09-24T13:08:49;14.50;99.90
9977;DHT22;5029;47.378;11.776;2022-09-24T13:19:34;14.30;99.90
9977;DHT22;5029;47.378;11.776;2022-09-24T13:24:48;14.30;99.90
9977;DHT22;5029;47.378;11.776;2022-09-24T13:30:03;14.10;99.90
9977;DHT22;5029;47.378;11.776;2022-09-24T13:35:21;14.50;99.90
9977;DHT22;5029;47.378;11.776;2022-09-24T13:40:36;14.60;99.90
9977;DHT22;5029;47.378;11.776;2022-09-24T13:45:44;14.60;99.90
9977;DHT22;5029;47.378;11.776;2022-09-24T13:50:54;14.40;99.90
9977;DHT22;5029;47.378;11.776;2022-09-24T13:56:02;14.20;99.90
9977;DHT22;5029;47.378;11.776;2022-09-24T14:01:11;14.20;99.90
9977;DHT22;5029;47.378;11.776;2022-09-24T14:55:36;13.20;99.90
9977;DHT22;5029;47.378;11.776;2022-09-24T15:00:46;13.10;99.90
9977;DHT22;5029;47.378;11.776;2022-09-24T15:05:51;12.90;99.90
9977;DHT22;5029;47.378;11.776;2022-09-24T15:10:59;13.10;99.90
9977;DHT22;5029;47.378;11.776;2022-09-24T15:16:14;12.90;99.90
9977;DHT22;5029;47.378;11.776;2022-09-24T15:21:26;12.60;99.90
9977;DHT22;5029;47.378;11.776;2022-09-24T15:26:34;12.60;99.90
9977;DHT22;5029;47.378;11.776;2022-09-24T15:31:39;12.60;99.90
9977;DHT22;5029;47.378;11.776;2022-09-24T15:36:43;12.40;99.90
9977;DHT22;5029;47.378;11.776;2022-09-24T15:41:49;12.40;99.90
9977;DHT22;5029;47.378;11.776;2022-09-24T15:46:53;12.70;99.90
9977;DHT22;5029;47.378;11.776;2022-09-24T15:52:00;12.50;99.90
9977;DHT22;5029;47.378;11.776;2022-09-24T15:57:08;12.30;99.90
9977;DHT22;5029;47.378;11.776;2022-09-24T16:02:20;12.50;99.90
9977;DHT22;5029;47.378;11.776;2022-09-24T16:07:25;11.90;99.90
9977;DHT22;5029;47.378;11.776;2022-09-24T16:12:31;11.50;99.90
9977;DHT22;5029;47.378;11.776;2022-09-24T16:17:43;11.40;99.90
9977;DHT22;5029;47.378;11.776;2022-09-24T16:22:47;11.30;99.90
9977;DHT22;5029;47.378;11.776;2022-09-24T16:28:08;11.30;99.90
9977;DHT22;5029;47.378;11.776;2022-09-24T16:33:27;11.30;99.90
9977;DHT22;5029;47.378;11.776;2022-09-24T16:38:37;11.20;99.90
9977;DHT22;5029;47.378;11.776;2022-09-24T16:43:47;11.40;99.90
9977;DHT22;5029;47.378;11.776;2022-09-24T16:48:55;11.10;99.90
9977;DHT22;5029;47.378;11.776;2022-09-24T16:54:07;11.20;99.90
9977;DHT22;5029;47.378;11.776;2022-09-24T16:59:18;10.90;99.90
9977;DHT22;5029;47.378;11.776;2022-09-24T17:04:24;10.70;99.90
9977;DHT22;5029;47.378;11.776;2022-09-24T17:14:50;10.80;99.90
9977;DHT22;5029;47.378;11.776;2022-09-24T17:19:54;10.90;99.90
9977;DHT22;5029;47.378;11.776;2022-09-24T17:24:57;10.80;99.90
9977;DHT22;5029;47.378;11.776;2022-09-24T17:30:04;11.10;99.90
9977;DHT22;5029;47.378;11.776;2022-09-24T17:35:08;11.00;99.90
9977;DHT22;5029;47.378;11.776;2022-09-24T17:40:12;10.60;99.90
9977;DHT22;5029;47.378;11.776;2022-09-24T17:45:29;10.70;99.90
9977;DHT22;5029;47.378;11.776;2022-09-24T17:50:34;10.90;99.90
9977;DHT22;5029;47.378;11.776;2022-09-24T17:55:46;10.60;99.90
9977;DHT22;5029;47.378;11.776;2022-09-24T18:00:52;10.40;99.90
9977;DHT22;5029;47.378;11.776;2022-09-24T18:05:59;10.50;99.90
9977;DHT22;5029;47.378;11.776;2022-09-24T18:11:07;10.40;99.90
9977;DHT22;5029;47.378;11.776;2022-09-24T18:16:13;10.60;99.90
9977;DHT22;5029;47.378;11.776;2022-09-24T18:21:19;10.50;99.90
9977;DHT22;5029;47.378;11.776;2022-09-24T18:26:28;10.30;99.90
9977;DHT22;5029;47.378;11.776;2022-09-24T18:31:36;10.40;99.90
9977;DHT22;5029;47.378;11.776;2022-09-24T18:36:42;10.40;99.90
9977;DHT22;5029;47.378;11.776;2022-09-24T18:41:55;10.60;99.90
9977;DHT22;5029;47.378;11.776;2022-09-24T18:47:03;10.30;99.90
9977;DHT22;5029;47.378;11.776;2022-09-24T18:52:11;10.50;99.90
9977;DHT22;5029;47.378;11.776;2022-09-24T18:57:21;10.60;99.90
9977;DHT22;5029;47.378;11.776;2022-09-24T19:02:27;10.20;99.90
9977;DHT22;5029;47.378;11.776;2022-09-24T19:07:31;10.30;99.90
9977;DHT22;5029;47.378;11.776;2022-09-24T19:12:37;10.10;99.90
9977;DHT22;5029;47.378;11.776;2022-09-24T19:17:45;10.10;99.90
9977;DHT22;5029;47.378;11.776;2022-09-24T19:22:50;10.00;99.90
9977;DHT22;5029;47.378;11.776;2022-09-24T19:28:02;10.20;99.90
9977;DHT22;5029;47.378;11.776;2022-09-24T19:33:08;10.10;99.90
9977;DHT22;5029;47.378;11.776;2022-09-24T19:38:14;10.10;99.90
9977;DHT22;5029;47.378;11.776;2022-09-24T19:43:18;10.20;99.90
9977;DHT22;5029;47.378;11.776;2022-09-24T19:48:23;10.10;99.90
9977;DHT22;5029;47.378;11.776;2022-09-24T19:53:28;10.10;99.90
9977;DHT22;5029;47.378;11.776;2022-09-24T19:58:32;10.00;99.90
9977;DHT22;5029;47.378;11.776;2022-09-24T20:03:38;9.80;99.90
9977;DHT22;5029;47.378;11.776;2022-09-24T20:08:42;9.80;99.90
9977;DHT22;5029;47.378;11.776;2022-09-24T20:13:46;9.60;99.90
9977;DHT22;5029;47.378;11.776;2022-09-24T20:18:53;9.70;99.90
9977;DHT22;5029;47.378;11.776;2022-09-24T20:23:59;9.80;99.90
9977;DHT22;5029;47.378;11.776;2022-09-24T20:29:05;9.70;99.90
9977;DHT22;5029;47.378;11.776;2022-09-24T20:34:12;9.60;99.90
9977;DHT22;5029;47.378;11.776;2022-09-24T20:39:16;9.70;99.90
9977;DHT22;5029;47.378;11.776;2022-09-24T20:44:19;9.90;99.90
9977;DHT22;5029;47.378;11.776;2022-09-24T20:49:27;10.00;99.90
9977;DHT22;5029;47.378;11.776;2022-09-24T20:54:31;9.90;99.90
9977;DHT22;5029;47.378;11.776;2022-09-24T20:59:35;9.80;99.90
9977;DHT22;5029;47.378;11.776;2022-09-24T21:04:40;9.80;99.90
9977;DHT22;5029;47.378;11.776;2022-09-24T21:09:44;9.70;99.90
9977;DHT22;5029;47.378;11.776;2022-09-24T21:14:48;9.60;99.90
9977;DHT22;5029;47.378;11.776;2022-09-24T21:19:54;9.40;99.90
9977;DHT22;5029;47.378;11.776;2022-09-24T21:24:58;9.40;99.90
9977;DHT22;5029;47.378;11.776;2022-09-24T21:30:02;9.70;99.90
9977;DHT22;5029;47.378;11.776;2022-09-24T21:35:08;9.80;99.90
9977;DHT22;5029;47.378;11.776;2022-09-24T21:40:11;9.70;99.90
9977;DHT22;5029;47.378;11.776;2022-09-24T21:45:16;9.70;99.90
9977;DHT22;5029;47.378;11.776;2022-09-24T21:50:21;9.80;99.90
9977;DHT22;5029;47.378;11.776;2022-09-24T21:55:24;9.90;99.90
9977;DHT22;5029;47.378;11.776;2022-09-24T22:00:27;9.80;99.90
9977;DHT22;5029;47.378;11.776;2022-09-24T22:05:34;9.80;99.90
9977;DHT22;5029;47.378;11.776;2022-09-24T22:10:43;9.70;99.90
9977;DHT22;5029;47.378;11.776;2022-09-24T22:15:47;9.60;99.90
9977;DHT22;5029;47.378;11.776;2022-09-24T22:20:54;9.70;99.90
9977;DHT22;5029;47.378;11.776;2022-09-24T22:25:58;9.80;99.90
9977;DHT22;5029;47.378;11.776;2022-09-24T22:31:15;9.60;99.90
9977;DHT22;5029;47.378;11.776;2022-09-24T22:36:48;9.40;99.90
9977;DHT22;5029;47.378;11.776;2022-09-24T22:41:52;9.40;99.90
9977;DHT22;5029;47.378;11.776;2022-09-24T22:46:56;9.50;99.90
9977;DHT22;5029;47.378;11.776;2022-09-24T22:52:01;9.50;99.90
9977;DHT22;5029;47.378;11.776;2022-09-24T22:57:04;9.40;99.90
9977;DHT22;5029;47.378;11.776;2022-09-24T23:02:08;9.40;99.90
9977;DHT22;5029;47.378;11.776;2022-09-24T23:07:15;9.30;99.90
9977;DHT22;5029;47.378;11.776;2022-09-24T23:12:19;9.30;99.90
9977;DHT22;5029;47.378;11.776;2022-09-24T23:17:23;9.10;99.90
9977;DHT22;5029;47.378;11.776;2022-09-24T23:22:29;9.20;99.90
9977;DHT22;5029;47.378;11.776;2022-09-24T23:27:32;9.20;99.90
9977;DHT22;5029;47.378;11.776;2022-09-24T23:32:36;9.10;99.90
9977;DHT22;5029;47.378;11.776;2022-09-24T23:37:41;8.90;99.90
9977;DHT22;5029;47.378;11.776;2022-09-24T23:42:44;9.00;99.90
9977;DHT22;5029;47.378;11.776;2022-09-24T23:47:48;8.90;99.90
9977;DHT22;5029;47.378;11.776;2022-09-24T23:52:53;9.20;99.90
9977;DHT22;5029;47.378;11.776;2022-09-24T23:57:57;9.00;99.90
